Etusivu
METAR-TAF:

METAR-TAF

Lentoasemat :

Lontoo Biggin Hill, Englanti

Leveyspiiri: 51-19N, Pituuspiiri: 000-02E, korkeus merenpinnasta: 183 m

Tämänhetkinen sää

Tämä raportti tehtiin 21 minuuttia sitten, kello 10.50 UTC
Tuuli 8 kn lännestä, vaihdellen lounaan ja luoteen välillä
Lämpötila 7°C
Kosteus 87%
Ilmanpaine 1027 hPa
Näkyvyys 10 km tai enemmän
Muutamia pilviä 2200 ft:n korkeudessa
Hajonneita pilviä 4000 ft:n korkeudessa
sadekuuroja näköpiirissä

METAR: EGKB 101050Z 27008KT 230V310 9999 VCSH FEW022 BKN040 07/05 Q1027

Aika: 11:11 (11:11 UTC)

Sääennuste

Tämä raportti tehtiin 3 tuntia ja 13 minuuttia sitten, kello 07.58 UTC
Ennuste voimassa 10. päivästä klo 09 UTC - 10. päivään klo 18 UTC
Tuuli 8 kn lännestä/lounaasta
Näkyvyys 10 km tai enemmän
Hajanaisia pilviä 4500 ft:n korkeudessa

TAF: EGKB 100758Z 1009/1018 25008KT 9999 SCT045

Säähavainnot ja -ennusteet yli 4000 lentoasemalta (METAR- ja TAF-raportit).

Käytössä olevat sääasemat on merkitty karttaan keltaisilla ja punaisilla pisteillä.

Aseta hiiri pisteen päälle nähdäksesi sääaseman nimen.

Klikkaa sitten nähdäksesi säähavainnot ja -ennusteet.

Kartan vaihtaminen: klikkaa mustalla rastilla varustettuja vihreitä pisteitä, niin voit zoomata sisään; viivalla varustettua vihreää pistettä, niin voit zoomata ulos tai vihreitä nuolia, niin pääset viereisille kartoille.


METAR-TAF: